Time;durP1;ratioP1;P1;durP2;ratioP2;P2;SDS_P1;SDS_P2;PMS_P1;PMS_P2;Temp;Humidity;BMP_temperature;BMP_pressure;BME280_temperature;BME280_humidity;BME280_pressure;Samples;Min_cycle;Max_cycle;Signal;HPM_P1;HPM_P2
2022/03/27 00:01:30;;;;;;;23.42;11.32;;;;;;;3.17;49.93;101404.06;4926428;29;20056;-79
2022/03/27 00:04:10;;;;;;;20.70;11.93;;;;;;;3.16;50.51;101411.94;4918926;29;20056;-80
2022/03/27 00:06:38;;;;;;;26.95;12.90;;;;;;;3.05;50.66;101420.00;4921618;29;20067;-78
2022/03/27 00:09:08;;;;;;;18.60;11.65;;;;;;;3.00;50.75;101417.50;4926519;29;20147;-77
2022/03/27 00:11:43;;;;;;;23.38;10.55;;;;;;;2.99;50.59;101415.78;4917521;29;20056;-78
2022/03/27 00:14:13;;;;;;;22.08;9.93;;;;;;;3.01;50.74;101418.38;4917325;29;20067;-78
2022/03/27 00:16:41;;;;;;;16.27;10.10;;;;;;;2.98;50.99;101423.66;4921952;29;20087;-79
2022/03/27 00:19:08;;;;;;;17.13;9.07;;;;;;;3.02;51.02;101425.28;4920329;29;20055;-78
2022/03/27 00:21:36;;;;;;;13.98;10.13;;;;;;;3.01;50.88;101420.97;4940975;29;20143;-80
2022/03/27 00:24:03;;;;;;;17.95;10.68;;;;;;;3.02;50.95;101425.28;4939962;29;20043;-79
2022/03/27 00:26:30;;;;;;;21.33;10.98;;;;;;;3.11;50.86;101429.44;5009625;28;20500;-80
2022/03/27 00:28:57;;;;;;;31.83;15.55;;;;;;;3.11;50.84;101437.28;5004506;28;20042;-79
2022/03/27 00:31:24;;;;;;;26.42;13.38;;;;;;;3.15;50.82;101439.81;5052103;28;20079;-80
2022/03/27 00:33:53;;;;;;;31.35;13.70;;;;;;;3.16;50.92;101425.84;5087940;28;20049;-78
2022/03/27 00:36:21;;;;;;;28.50;10.90;;;;;;;3.18;50.92;101436.25;5084192;28;20045;-78
2022/03/27 00:38:48;;;;;;;30.50;13.32;;;;;;;3.19;50.73;101425.78;5076292;28;20472;-79
2022/03/27 00:41:16;;;;;;;31.75;12.77;;;;;;;3.20;50.63;101434.47;5068601;28;20117;-80
2022/03/27 00:43:43;;;;;;;25.55;11.25;;;;;;;3.21;50.73;101444.03;5079002;28;20140;-79
2022/03/27 00:46:11;;;;;;;18.27;8.40;;;;;;;3.19;50.97;101432.75;5074323;28;20048;-77
2022/03/27 00:48:38;;;;;;;16.17;8.45;;;;;;;3.13;50.99;101436.34;5076553;28;20048;-77
2022/03/27 00:51:07;;;;;;;13.88;7.60;;;;;;;3.15;50.79;101431.97;5083121;28;20132;-72
2022/03/27 00:53:34;;;;;;;12.40;5.50;;;;;;;3.17;50.96;101437.13;5085060;28;20096;-75
2022/03/27 00:56:01;;;;;;;23.77;11.05;;;;;;;3.16;50.92;101438.88;5085360;28;20100;-73
2022/03/27 00:58:28;;;;;;;18.75;8.90;;;;;;;3.15;51.00;101437.19;5083994;28;20080;-76
2022/03/27 01:01:06;;;;;;;16.88;8.60;;;;;;;3.12;50.85;101447.69;5082749;28;20090;-75
2022/03/27 01:03:33;;;;;;;14.02;6.50;;;;;;;3.11;50.87;101442.50;5085333;28;20099;-77
2022/03/27 01:06:00;;;;;;;14.77;6.70;;;;;;;3.06;51.01;101433.03;5086594;28;20064;-78
2022/03/27 01:11:17;;;;;;;10.95;5.60;;;;;;;3.02;51.03;101431.34;5086809;28;20115;-77
2022/03/27 01:13:46;;;;;;;15.57;7.28;;;;;;;3.00;51.26;101433.16;5088441;28;20075;-78
2022/03/27 01:16:29;;;;;;;14.45;5.32;;;;;;;3.01;51.21;101436.63;5089600;28;20101;-78
2022/03/27 01:18:56;;;;;;;15.75;5.68;;;;;;;2.98;51.04;101437.53;5089670;28;20169;-75
2022/03/27 01:21:25;;;;;;;11.63;5.43;;;;;;;2.98;51.33;101441.91;5107090;28;20052;-77
2022/03/27 01:23:54;;;;;;;17.67;6.25;;;;;;;2.97;51.21;101433.25;5108007;28;20102;-77
2022/03/27 01:26:22;;;;;;;12.73;5.47;;;;;;;2.96;51.09;101433.28;5114065;28;20036;-80
2022/03/27 01:28:49;;;;;;;12.98;6.00;;;;;;;2.96;51.32;101439.34;5113371;28;20032;-80
2022/03/27 01:31:16;;;;;;;18.98;5.82;;;;;;;2.93;51.29;101448.97;5113816;28;20051;-77
2022/03/27 01:33:43;;;;;;;14.68;7.85;;;;;;;2.95;51.48;101442.81;5111982;28;20051;-78
2022/03/27 01:36:11;;;;;;;15.60;7.90;;;;;;;2.96;51.35;101448.94;5112747;28;20028;-76
2022/03/27 01:38:39;;;;;;;18.58;7.40;;;;;;;2.99;51.36;101446.22;5109961;28;20036;-79
2022/03/27 01:41:06;;;;;;;10.65;6.43;;;;;;;3.03;51.08;101442.69;5095000;28;20063;-79
2022/03/27 01:43:34;;;;;;;22.02;6.97;;;;;;;3.01;51.30;101455.75;5100740;28;20059;-78
2022/03/27 01:46:03;;;;;;;13.18;7.25;;;;;;;3.03;51.26;101453.13;5094530;28;20123;-82
2022/03/27 01:48:30;;;;;;;14.70;6.32;;;;;;;3.00;51.50;101453.19;5075712;28;20098;-80
2022/03/27 01:51:01;;;;;;;14.90;7.05;;;;;;;2.99;51.45;101459.28;5091177;28;20457;-81
2022/03/27 01:53:28;;;;;;;12.07;7.13;;;;;;;2.93;51.78;101465.50;5092882;28;20513;-81
2022/03/27 01:55:57;;;;;;;11.75;6.10;;;;;;;2.90;51.88;101465.56;5089177;28;20240;-79
2022/03/27 01:58:24;;;;;;;13.02;6.03;;;;;;;2.90;51.67;101460.34;5087915;28;20289;-78
2022/03/27 02:00:53;;;;;;;13.38;4.88;;;;;;;2.91;51.83;101458.59;5070636;28;20719;-79
2022/03/27 02:03:21;;;;;;;8.65;4.38;;;;;;;2.90;51.71;101451.66;5087946;28;20133;-79
2022/03/27 02:05:48;;;;;;;11.38;4.13;;;;;;;2.90;51.79;101457.75;5087568;28;20050;-76
2022/03/27 02:08:15;;;;;;;11.25;5.10;;;;;;;2.86;51.93;101464.78;5086097;28;20054;-81
2022/03/27 02:10:43;;;;;;;15.55;5.25;;;;;;;2.86;51.78;101464.78;5089927;28;20071;-81
2022/03/27 02:13:18;;;;;;;10.35;5.38;;;;;;;2.79;52.12;101470.13;5093788;28;20143;-81
2022/03/27 02:15:46;;;;;;;10.00;4.35;;;;;;;2.75;52.29;101471.94;5093575;28;20139;-80
2022/03/27 02:18:14;;;;;;;10.48;5.05;;;;;;;2.72;52.55;101476.38;5067075;28;20127;-79
2022/03/27 02:20:44;;;;;;;11.02;4.97;;;;;;;2.67;52.62;101476.47;5093330;28;20138;-80
2022/03/27 02:23:12;;;;;;;11.35;4.90;;;;;;;2.67;52.16;101477.34;5076407;28;20121;-79
2022/03/27 02:25:39;;;;;;;10.73;4.53;;;;;;;2.67;52.55;101481.69;5092190;28;20131;-81
2022/03/27 02:28:07;;;;;;;11.82;4.43;;;;;;;2.65;52.73;101486.94;5095239;28;20143;-81
2022/03/27 02:30:35;;;;;;;12.15;5.53;;;;;;;2.63;52.88;101493.94;5094426;28;20078;-81
2022/03/27 02:33:03;;;;;;;17.08;5.20;;;;;;;2.61;53.00;101494.84;5074962;28;20063;-82
2022/03/27 02:35:31;;;;;;;11.93;4.35;;;;;;;2.57;52.92;101496.66;5093013;28;20108;-80
2022/03/27 02:37:58;;;;;;;10.50;4.35;;;;;;;2.55;53.10;101490.63;5091331;28;20105;-82
2022/03/27 02:40:26;;;;;;;12.63;6.05;;;;;;;2.51;53.21;101499.41;5093929;28;20534;-80
2022/03/27 02:42:53;;;;;;;10.82;4.55;;;;;;;2.53;52.97;101488.94;5092901;28;20052;-80
2022/03/27 02:45:22;;;;;;;14.50;5.40;;;;;;;2.50;53.46;101500.28;5094324;28;20132;-81
2022/03/27 02:47:51;;;;;;;13.00;5.07;;;;;;;2.51;53.17;101495.94;5092969;28;20048;-79
2022/03/27 02:50:19;;;;;;;12.68;4.88;;;;;;;2.50;53.52;101502.88;5093427;28;20127;-78
2022/03/27 02:52:46;;;;;;;10.88;4.55;;;;;;;2.47;53.24;101495.13;5064153;28;20396;-82
2022/03/27 02:55:14;;;;;;;9.70;4.25;;;;;;;2.47;53.61;101501.19;5044347;28;20065;-81
2022/03/27 02:57:42;;;;;;;9.93;4.55;;;;;;;2.43;53.45;101511.69;5052828;28;20142;-82
2022/03/27 03:00:12;;;;;;;11.18;5.80;;;;;;;2.43;53.71;101509.09;5051031;28;20045;-81
2022/03/27 03:02:41;;;;;;;9.57;5.07;;;;;;;2.39;53.62;101512.66;5052648;28;20118;-80
2022/03/27 03:05:12;;;;;;;8.65;4.00;;;;;;;2.37;53.94;101507.47;5051606;28;20072;-80
2022/03/27 03:07:42;;;;;;;11.25;4.97;;;;;;;2.35;53.90;101521.44;5032473;28;20135;-80
2022/03/27 03:10:10;;;;;;;12.45;5.00;;;;;;;2.33;54.26;101521.44;5052420;28;20199;-79
2022/03/27 03:12:42;;;;;;;11.68;4.60;;;;;;;2.35;54.03;101522.28;5055326;28;20080;-82
2022/03/27 03:15:10;;;;;;;16.45;5.40;;;;;;;2.32;53.92;101519.72;5052895;28;20049;-81
2022/03/27 03:17:38;;;;;;;12.77;5.65;;;;;;;2.36;53.74;101517.91;5034351;28;20059;-80
2022/03/27 03:20:07;;;;;;;12.82;5.65;;;;;;;2.33;54.02;101524.06;5053897;28;20075;-81
2022/03/27 03:22:37;;;;;;;12.70;5.03;;;;;;;2.33;54.30;101525.81;5047144;28;20049;-81
2022/03/27 03:25:05;;;;;;;11.98;4.40;;;;;;;2.32;54.49;101527.53;5052326;28;20053;-81
2022/03/27 03:27:33;;;;;;;10.18;5.25;;;;;;;2.33;54.13;101529.28;5053634;28;20224;-81
2022/03/27 03:30:01;;;;;;;13.25;5.93;;;;;;;2.34;54.05;101527.50;5053261;28;20084;-81
2022/03/27 03:32:29;;;;;;;11.00;4.70;;;;;;;2.34;54.19;101527.50;5054233;28;20053;-81
2022/03/27 03:34:56;;;;;;;8.52;4.47;;;;;;;2.35;54.11;101524.88;5052248;28;20229;-79
2022/03/27 03:37:25;;;;;;;13.90;5.03;;;;;;;2.34;54.10;101517.97;5032080;28;20059;-81
2022/03/27 03:39:54;;;;;;;11.95;4.05;;;;;;;2.38;54.10;101527.44;5052651;28;20107;-81
2022/03/27 03:42:21;;;;;;;9.02;6.68;;;;;;;2.36;54.09;101529.22;5052079;28;20570;-81
2022/03/27 03:44:49;;;;;;;19.70;6.57;;;;;;;2.32;54.08;101531.91;5035274;28;20102;-81
2022/03/27 03:47:17;;;;;;;15.88;5.22;;;;;;;2.34;54.09;101538.81;5051626;28;20507;-81
2022/03/27 03:49:44;;;;;;;8.85;4.30;;;;;;;2.32;54.14;101530.16;5012942;28;20069;-81
2022/03/27 03:52:11;;;;;;;11.20;5.10;;;;;;;2.31;54.29;101538.88;5029728;28;20085;-82
2022/03/27 03:54:39;;;;;;;16.40;6.45;;;;;;;2.29;54.50;101540.66;5013226;28;20488;-78
2022/03/27 03:57:07;;;;;;;10.68;5.47;;;;;;;2.29;54.34;101541.50;5011661;28;20045;-79
2022/03/27 03:59:36;;;;;;;14.90;5.40;;;;;;;2.22;54.29;101541.66;5028911;28;20770;-80
2022/03/27 04:02:05;;;;;;;10.32;5.28;;;;;;;2.27;54.33;101542.44;5029839;28;20464;-79
2022/03/27 04:04:34;;;;;;;10.30;5.40;;;;;;;2.23;54.44;101545.94;5028686;28;20046;-81
2022/03/27 04:07:03;;;;;;;11.60;4.68;;;;;;;2.15;54.82;101550.44;5032408;28;20073;-80
2022/03/27 04:09:31;;;;;;;9.70;4.82;;;;;;;2.14;54.85;101548.72;5040540;28;20072;-80
2022/03/27 04:11:58;;;;;;;8.98;6.18;;;;;;;2.14;54.69;101552.19;5067205;28;20063;-80
2022/03/27 04:14:28;;;;;;;13.85;5.15;;;;;;;2.12;54.76;101550.50;5066944;28;20041;-81
2022/03/27 04:16:56;;;;;;;14.55;5.97;;;;;;;2.09;55.07;101556.63;5067448;28;20055;-80
2022/03/27 04:19:24;;;;;;;18.65;5.45;;;;;;;2.04;55.15;101550.63;5061193;28;20045;-80
2022/03/27 04:21:51;;;;;;;16.05;5.82;;;;;;;2.05;54.96;101557.53;5060550;28;20049;-81
2022/03/27 04:24:18;;;;;;;21.15;8.23;;;;;;;2.03;55.11;101562.78;5064862;28;20108;-81
2022/03/27 04:26:45;;;;;;;18.90;8.80;;;;;;;2.02;55.34;101566.28;5061726;28;20087;-78
2022/03/27 04:29:12;;;;;;;41.95;21.98;;;;;;;2.04;55.22;101561.91;5057452;28;20376;-80
2022/03/27 04:31:41;;;;;;;59.05;20.88;;;;;;;2.05;55.16;101565.34;5055162;28;20052;-78
2022/03/27 04:34:10;;;;;;;45.15;17.85;;;;;;;2.08;55.25;101576.59;5052306;28;20067;-78
2022/03/27 04:36:37;;;;;;;27.65;11.90;;;;;;;2.10;54.96;101580.03;5052846;28;20140;-82
2022/03/27 04:39:05;;;;;;;18.02;6.35;;;;;;;2.15;54.97;101581.72;5035780;28;20041;-80
2022/03/27 04:41:33;;;;;;;12.43;6.90;;;;;;;2.20;54.82;101585.13;5054362;28;20055;-80
2022/03/27 04:44:01;;;;;;;18.77;9.25;;;;;;;2.23;54.80;101575.50;5052870;28;20080;-81
2022/03/27 04:46:28;;;;;;;22.85;9.35;;;;;;;2.26;54.56;101572.81;5034176;28;20103;-82
2022/03/27 04:48:58;;;;;;;14.80;7.00;;;;;;;2.33;54.76;101580.56;5035368;28;20127;-80
2022/03/27 04:51:25;;;;;;;18.08;8.13;;;;;;;2.35;54.57;101577.03;5057782;28;20109;-80
2022/03/27 04:53:53;;;;;;;19.30;7.72;;;;;;;2.40;54.39;101575.22;5037146;28;20045;-80
2022/03/27 04:56:23;;;;;;;13.13;6.28;;;;;;;2.43;54.24;101588.22;5055423;28;20132;-79
2022/03/27 04:58:50;;;;;;;14.52;5.88;;;;;;;2.53;53.98;101588.03;5054052;28;20055;-79
2022/03/27 05:01:18;;;;;;;17.00;5.43;;;;;;;2.66;53.89;101584.31;5039630;28;20135;-82
2022/03/27 05:03:45;;;;;;;13.60;7.28;;;;;;;2.73;53.49;101596.34;5044282;28;20041;-79
2022/03/27 05:06:15;;;;;;;21.88;8.27;;;;;;;2.86;53.43;101587.44;5060727;28;20097;-81
2022/03/27 05:08:44;;;;;;;14.32;7.50;;;;;;;2.96;52.87;101593.31;5057105;28;20045;-81
2022/03/27 05:11:11;;;;;;;12.30;7.78;;;;;;;3.01;52.79;101595.84;5057998;28;20072;-78
2022/03/27 05:13:38;;;;;;;17.20;7.13;;;;;;;2.99;52.48;101600.22;5056929;28;20227;-78
2022/03/27 05:16:06;;;;;;;14.77;7.38;;;;;;;3.02;52.67;101592.34;5050958;28;20079;-78
2022/03/27 05:18:33;;;;;;;16.60;7.30;;;;;;;2.97;52.54;101600.28;5051977;28;20611;-81
2022/03/27 05:21:01;;;;;;;18.63;9.80;;;;;;;2.97;52.55;101599.38;5079729;28;20312;-82
2022/03/27 05:23:30;;;;;;;23.38;9.73;;;;;;;2.93;52.75;101597.75;5073424;28;20048;-81
2022/03/27 05:25:57;;;;;;;25.42;11.07;;;;;;;2.90;52.80;101603.88;5083150;28;20072;-80
2022/03/27 05:28:25;;;;;;;22.60;11.02;;;;;;;2.94;52.71;101602.09;5078500;28;20087;-81
2022/03/27 05:30:55;;;;;;;21.38;8.57;;;;;;;2.94;52.75;101609.91;5078566;28;20040;-82
2022/03/27 05:33:22;;;;;;;17.38;9.00;;;;;;;2.93;52.79;101621.22;5054438;28;20679;-80
2022/03/27 05:35:50;;;;;;;15.15;8.30;;;;;;;2.92;53.05;101622.09;5069138;28;20152;-79
2022/03/27 05:38:17;;;;;;;19.20;9.60;;;;;;;2.90;52.94;101629.09;5034669;28;20534;-79
2022/03/27 05:40:46;;;;;;;29.40;12.77;;;;;;;2.89;52.89;101632.63;5070222;28;20049;-77
2022/03/27 05:43:18;;;;;;;31.20;12.18;;;;;;;2.97;52.84;101625.50;5070299;28;20140;-83
2022/03/27 05:45:45;;;;;;;26.17;11.75;;;;;;;3.03;52.85;101630.59;5071689;28;20044;-74
2022/03/27 05:48:14;;;;;;;21.50;10.20;;;;;;;3.11;52.74;101627.84;5073526;28;20514;-80
2022/03/27 05:50:41;;;;;;;21.73;8.52;;;;;;;3.13;52.59;101639.97;5054957;28;20068;-77
2022/03/27 05:53:08;;;;;;;18.33;10.68;;;;;;;3.13;52.56;101634.75;5056465;28;20117;-77
2022/03/27 05:55:35;;;;;;;17.67;9.90;;;;;;;3.16;52.53;101632.09;5075314;28;20045;-78
2022/03/27 05:58:04;;;;;;;26.83;9.90;;;;;;;3.14;52.46;101636.47;5073569;28;20059;-79
2022/03/27 06:00:31;;;;;;;17.02;8.85;;;;;;;3.20;52.59;101636.34;5073537;28;20403;-80
2022/03/27 06:02:58;;;;;;;18.10;8.85;;;;;;;3.21;52.38;101640.69;5075517;28;20511;-74
2022/03/27 06:05:25;;;;;;;16.85;8.80;;;;;;;3.25;52.25;101631.91;5071487;28;20090;-76
2022/03/27 06:07:54;;;;;;;20.60;11.02;;;;;;;3.27;52.43;101638.84;5084532;28;20048;-76
2022/03/27 06:10:23;;;;;;;17.65;10.02;;;;;;;3.36;52.41;101649.13;5087138;28;20082;-75
2022/03/27 06:12:51;;;;;;;19.17;11.52;;;;;;;3.53;52.06;101641.78;5086338;28;20059;-75
2022/03/27 06:15:21;;;;;;;33.35;17.50;;;;;;;3.67;51.77;101651.09;5091429;28;20048;-76
2022/03/27 06:17:50;;;;;;;23.63;12.93;;;;;;;3.81;51.67;101647.28;5088350;28;20119;-73
2022/03/27 06:20:19;;;;;;;29.15;17.70;;;;;;;3.84;51.41;101654.19;5087032;28;20308;-73
2022/03/27 06:22:46;;;;;;;22.08;15.98;;;;;;;3.88;51.32;101658.47;5093416;28;20116;-77
2022/03/27 06:25:16;;;;;;;24.60;10.10;;;;;;;4.04;50.81;101658.13;5076689;28;20763;-71
2022/03/27 06:27:44;;;;;;;13.90;8.70;;;;;;;4.07;50.75;101663.25;5077830;28;20460;-71
2022/03/27 06:30:15;;;;;;;19.73;7.40;;;;;;;4.20;50.41;101669.94;5075529;28;20626;-75
2022/03/27 06:32:44;;;;;;;17.80;9.23;;;;;;;4.27;50.17;101671.53;5073348;28;20163;-74
2022/03/27 06:35:12;;;;;;;11.82;6.63;;;;;;;4.35;49.90;101674.81;5070232;28;20048;-74
2022/03/27 06:37:40;;;;;;;27.90;9.40;;;;;;;4.49;49.84;101692.81;5070168;28;20210;-77
2022/03/27 06:40:09;;;;;;;17.67;7.50;;;;;;;4.51;49.50;101692.78;5070699;28;20732;-72
2022/03/27 06:42:37;;;;;;;15.30;7.38;;;;;;;4.57;49.29;101696.09;5010525;28;20100;-73
2022/03/27 06:45:05;;;;;;;11.30;6.43;;;;;;;4.66;49.21;101696.75;5079891;28;20362;-70
2022/03/27 06:47:32;;;;;;;13.15;6.10;;;;;;;4.77;48.93;101695.59;5091610;28;20048;-77
2022/03/27 06:50:02;;;;;;;10.38;7.47;;;;;;;4.86;48.65;101711.97;5088507;28;20066;-68
2022/03/27 06:52:29;;;;;;;11.98;6.43;;;;;;;4.98;48.66;101701.19;5087922;28;20241;-72
2022/03/27 06:54:57;;;;;;;14.80;7.15;;;;;;;5.16;48.29;101700.69;5088534;28;20070;-74
2022/03/27 06:57:24;;;;;;;12.48;7.72;;;;;;;5.28;48.14;101698.66;5085918;28;20058;-73
2022/03/27 07:05:22;;;;;;;9.48;4.88;;;;;;;5.50;46.58;101699.75;5084763;28;20071;-69
2022/03/27 07:07:53;;;;;;;10.65;6.03;;;;;;;5.55;46.69;101697.88;5081035;28;20059;-76
2022/03/27 07:10:20;;;;;;;8.80;5.20;;;;;;;5.63;45.62;101695.03;5072377;28;20063;-76
2022/03/27 07:12:48;;;;;;;11.65;4.35;;;;;;;5.80;45.66;101701.53;5071460;28;20638;-70
2022/03/27 07:15:16;;;;;;;10.15;4.72;;;;;;;5.93;44.44;101695.91;5057145;28;20146;-76
2022/03/27 07:17:47;;;;;;;10.07;3.97;;;;;;;6.01;44.10;101705.34;5072458;28;20084;-73
2022/03/27 07:20:18;;;;;;;7.55;3.78;;;;;;;6.07;43.50;101710.41;4998953;28;20059;-72
2022/03/27 07:22:52;;;;;;;9.02;3.67;;;;;;;6.13;42.89;101710.22;5062948;28;20131;-77
2022/03/27 07:25:20;;;;;;;11.63;3.65;;;;;;;6.24;43.07;101712.50;5075537;28;20086;-79
2022/03/27 07:27:53;;;;;;;8.35;3.42;;;;;;;6.33;42.54;101714.84;5079096;28;20723;-78
2022/03/27 07:30:21;;;;;;;8.35;3.80;;;;;;;6.32;42.11;101718.41;5015393;28;20052;-75
2022/03/27 07:32:52;;;;;;;9.80;3.25;;;;;;;6.40;41.61;101724.25;5071780;28;20125;-75
2022/03/27 07:35:22;;;;;;;5.72;2.83;;;;;;;6.39;40.58;101724.28;5073095;28;20052;-75
2022/03/27 07:37:54;;;;;;;6.68;2.65;;;;;;;6.47;40.90;101724.91;5052864;28;20156;-81
2022/03/27 07:40:27;;;;;;;6.22;3.13;;;;;;;6.60;39.87;101723.59;5070339;28;20136;-71
2022/03/27 07:42:57;;;;;;;4.88;2.58;;;;;;;6.68;38.78;101724.22;5067313;28;20041;-75
2022/03/27 07:45:26;;;;;;;3.95;2.15;;;;;;;6.72;39.04;101726.72;5069614;28;20041;-75
2022/03/27 07:48:00;;;;;;;4.55;2.30;;;;;;;6.74;38.18;101722.31;5027609;28;20651;-75
2022/03/27 07:50:40;;;;;;;12.45;5.45;;;;;;;6.85;38.09;101720.19;5070539;28;20090;-77
2022/03/27 07:53:18;;;;;;;6.07;3.35;;;;;;;7.08;34.50;101722.03;5075481;28;20051;-76
2022/03/27 07:55:45;;;;;;;4.28;1.80;;;;;;;7.04;33.79;101721.28;5050496;28;20059;-78
2022/03/27 07:58:13;;;;;;;5.05;2.25;;;;;;;7.08;32.37;101722.03;5061937;28;20098;-77
2022/03/27 08:00:41;;;;;;;9.40;6.40;;;;;;;7.14;32.00;101715.69;5068829;28;20865;-77
2022/03/27 08:03:10;;;;;;;7.68;4.55;;;;;;;7.19;31.80;101719.03;5074936;28;20072;-81
2022/03/27 08:05:38;;;;;;;4.60;1.48;;;;;;;7.41;32.93;101712.09;5072913;28;20086;-77
2022/03/27 08:08:06;;;;;;;5.32;1.83;;;;;;;7.43;31.91;101710.25;5071054;28;20413;-78
2022/03/27 08:10:36;;;;;;;5.80;2.35;;;;;;;7.49;32.13;101703.94;5052135;28;20043;-74
2022/03/27 08:13:03;;;;;;;4.40;1.35;;;;;;;7.55;31.17;101705.50;5066576;28;20048;-71
2022/03/27 08:15:32;;;;;;;7.45;4.20;;;;;;;7.72;29.77;101702.22;5066154;28;20127;-74
2022/03/27 08:18:01;;;;;;;6.05;2.15;;;;;;;7.83;30.80;101708.81;5060280;28;20048;-72
2022/03/27 08:20:29;;;;;;;5.65;3.45;;;;;;;8.02;30.66;101702.84;5067172;28;20056;-77
2022/03/27 08:22:57;;;;;;;8.88;4.10;;;;;;;8.14;29.12;101710.25;5079236;28;20044;-73
2022/03/27 08:28:20;;;;;;;2.40;1.05;;;;;;;8.50;27.32;101707.13;5092565;28;20067;-81
2022/03/27 08:30:47;;;;;;;4.90;2.03;;;;;;;8.58;27.06;101704.16;5069193;28;20108;-79
2022/03/27 08:36:05;;;;;;;2.97;1.60;;;;;;;9.01;26.40;101694.47;5031825;28;20123;-74
2022/03/27 08:38:32;;;;;;;4.65;2.85;;;;;;;9.08;26.44;101695.06;5082193;28;20135;-73
2022/03/27 08:41:01;;;;;;;2.33;1.65;;;;;;;9.38;26.61;101695.47;5078027;28;20598;-77
2022/03/27 08:43:33;;;;;;;7.25;4.22;;;;;;;9.58;26.35;101707.81;5080924;28;20040;-76
2022/03/27 08:46:00;;;;;;;5.75;1.73;;;;;;;9.62;27.09;101690.91;5082627;28;20035;-76
2022/03/27 08:48:32;;;;;;;4.97;2.50;;;;;;;9.72;27.02;101689.56;5085442;28;20040;-77
2022/03/27 08:51:06;;;;;;;3.40;1.52;;;;;;;9.62;26.57;101682.16;5086155;28;20662;-78
2022/03/27 08:53:48;;;;;;;2.90;0.85;;;;;;;9.98;27.36;101671.66;5081643;28;20519;-77
2022/03/27 08:56:16;;;;;;;4.20;1.35;;;;;;;10.00;25.28;101671.59;5081156;28;20132;-76
2022/03/27 08:58:46;;;;;;;3.03;1.50;;;;;;;9.69;25.32;101679.16;5082952;28;20047;-73
2022/03/27 09:01:13;;;;;;;1.33;0.93;;;;;;;9.66;26.10;101673.16;5080998;28;20419;-74
2022/03/27 09:03:40;;;;;;;2.67;1.27;;;;;;;9.62;25.63;101677.72;5081849;28;20051;-74
2022/03/27 09:06:08;;;;;;;4.43;1.00;;;;;;;9.75;26.21;101681.50;5076169;28;20212;-75
2022/03/27 09:08:36;;;;;;;3.55;1.58;;;;;;;9.78;25.50;101675.22;5085362;28;20050;-74
2022/03/27 09:11:03;;;;;;;3.60;1.30;;;;;;;9.63;25.64;101679.41;5083522;28;20071;-74
2022/03/27 09:13:32;;;;;;;3.58;1.58;;;;;;;9.67;25.78;101675.72;5083956;28;20109;-74
2022/03/27 09:16:09;;;;;;;2.78;1.30;;;;;;;9.68;25.92;101687.97;5084708;28;20149;-77
2022/03/27 09:18:44;;;;;;;6.88;2.47;;;;;;;9.75;25.71;101689.41;5085165;28;20048;-75
2022/03/27 09:21:13;;;;;;;2.20;1.10;;;;;;;9.98;26.28;101682.22;5067891;28;20079;-74
2022/03/27 09:23:40;;;;;;;3.00;1.08;;;;;;;10.26;26.18;101675.59;5080336;28;20744;-74
2022/03/27 09:26:11;;;;;;;4.75;1.50;;;;;;;10.50;25.42;101670.97;5078733;28;20404;-70
2022/03/27 09:28:39;;;;;;;4.55;2.60;;;;;;;10.33;24.56;101674.41;5071781;28;20459;-75
2022/03/27 09:31:22;;;;;;;4.20;1.80;;;;;;;10.20;24.79;101678.56;5074782;28;20058;-76
2022/03/27 09:33:52;;;;;;;3.83;1.63;;;;;;;10.19;24.82;101671.56;5069047;28;20078;-77
2022/03/27 09:36:25;;;;;;;2.53;1.45;;;;;;;10.12;24.78;101658.66;5075669;28;20582;-75
2022/03/27 09:39:09;;;;;;;5.20;1.33;;;;;;;10.59;25.12;101657.28;5073084;28;20667;-74
2022/03/27 09:41:39;;;;;;;3.42;1.35;;;;;;;10.67;24.30;101652.44;5072049;28;20044;-72
2022/03/27 09:44:09;;;;;;;2.65;1.10;;;;;;;10.70;24.86;101646.19;5073445;28;20059;-80
2022/03/27 09:47:06;;;;;;;3.05;1.27;;;;;;;10.70;23.93;101649.66;5070358;28;20049;-76
2022/03/27 09:49:42;;;;;;;2.50;0.90;;;;;;;10.52;23.92;101653.25;5072232;28;20530;-72
2022/03/27 09:52:11;;;;;;;3.30;0.85;;;;;;;10.36;23.31;101645.22;5072151;28;20048;-77
2022/03/27 09:54:49;;;;;;;4.85;1.35;;;;;;;10.40;23.59;101640.63;5079613;28;20051;-77
2022/03/27 09:57:21;;;;;;;4.13;1.45;;;;;;;10.33;22.94;101646.25;5076595;28;20059;-75
2022/03/27 09:59:49;;;;;;;1.17;1.08;;;;;;;10.26;23.82;101646.56;5072078;28;20130;-75
2022/03/27 10:02:26;;;;;;;2.97;1.45;;;;;;;10.24;24.03;101653.69;5074815;28;20080;-77
2022/03/27 10:04:58;;;;;;;3.92;1.45;;;;;;;10.38;23.98;101645.16;5077267;28;20044;-79
2022/03/27 10:07:27;;;;;;;4.15;1.00;;;;;;;10.55;24.02;101636.38;5079806;28;20521;-80
2022/03/27 10:09:54;;;;;;;2.10;1.15;;;;;;;10.48;23.46;101626.13;5071416;28;20052;-74
2022/03/27 10:12:28;;;;;;;2.42;1.08;;;;;;;10.62;23.63;101629.84;5073477;28;20277;-77
2022/03/27 10:14:59;;;;;;;2.78;1.00;;;;;;;10.54;23.43;101624.13;5075721;28;20079;-80
2022/03/27 10:17:31;;;;;;;3.28;0.98;;;;;;;10.56;23.46;101630.16;5074325;28;20072;-80
2022/03/27 10:20:05;;;;;;;3.22;1.17;;;;;;;10.59;23.41;101622.06;5071870;28;20064;-76
2022/03/27 10:22:37;;;;;;;2.65;1.27;;;;;;;10.55;23.40;101636.38;5083578;28;20071;-81
2022/03/27 10:25:08;;;;;;;3.47;1.05;;;;;;;10.84;23.98;101626.94;5090617;28;20052;-80
2022/03/27 10:27:36;;;;;;;2.58;1.20;;;;;;;11.10;23.29;101628.25;5089992;28;20147;-81
2022/03/27 10:30:05;;;;;;;2.75;1.10;;;;;;;10.94;22.77;101625.56;5097201;28;20165;-76
2022/03/27 10:32:39;;;;;;;6.35;2.05;;;;;;;10.74;22.94;101621.28;5107608;28;20050;-80
2022/03/27 10:35:16;;;;;;;2.97;1.02;;;;;;;10.76;23.24;101622.06;5102297;28;20044;-77
2022/03/27 10:38:11;;;;;;;3.17;1.40;;;;;;;11.16;23.49;101606.75;5104251;28;20047;-83
2022/03/27 10:40:51;;;;;;;3.15;0.80;;;;;;;11.31;22.95;101612.16;5075989;28;20058;-73
2022/03/27 10:43:32;;;;;;;2.28;1.00;;;;;;;11.31;22.72;101597.16;5093980;28;20160;-76
2022/03/27 10:46:21;;;;;;;2.58;1.55;;;;;;;11.27;22.72;101606.19;5085397;28;20123;-72
2022/03/27 10:48:53;;;;;;;1.70;0.80;;;;;;;11.19;22.64;101601.31;5081889;28;20226;-79
2022/03/27 10:51:38;;;;;;;3.70;1.40;;;;;;;11.24;22.57;101609.84;5083552;28;20040;-74
2022/03/27 10:54:07;;;;;;;2.50;0.97;;;;;;;11.25;22.54;101608.94;5080569;28;20101;-73
2022/03/27 10:56:36;;;;;;;2.53;1.13;;;;;;;11.25;22.71;101608.06;5087349;28;20075;-75
2022/03/27 11:01:58;;;;;;;1.35;0.70;;;;;;;11.44;22.73;101600.84;5045732;28;20532;-76
2022/03/27 11:04:38;;;;;;;4.47;1.00;;;;;;;11.50;22.75;101588.22;5042287;28;20120;-73
2022/03/27 11:07:21;;;;;;;2.85;0.95;;;;;;;11.53;22.96;101588.91;5039273;28;20049;-73
2022/03/27 11:09:49;;;;;;;2.67;0.88;;;;;;;11.34;22.77;101582.91;5040068;28;20048;-75
2022/03/27 11:12:29;;;;;;;3.00;1.08;;;;;;;11.37;23.11;101574.81;5031119;28;20080;-74
2022/03/27 11:15:00;;;;;;;1.52;1.10;;;;;;;11.40;22.84;101582.59;5029793;28;20137;-76
2022/03/27 11:17:45;;;;;;;3.22;1.67;;;;;;;11.55;23.21;101581.72;5030430;28;20125;-76
2022/03/27 11:20:59;;;;;;;3.72;1.35;;;;;;;11.38;22.34;101584.44;5023774;28;20476;-77
2022/03/27 11:23:29;;;;;;;2.50;1.40;;;;;;;11.63;22.93;101576.88;5025515;28;20046;-75
2022/03/27 11:25:58;;;;;;;4.25;1.95;;;;;;;11.68;22.33;101576.59;5025593;28;20737;-78
2022/03/27 11:28:27;;;;;;;2.25;1.10;;;;;;;11.87;22.75;101560.56;5027558;28;20698;-79
2022/03/27 11:31:20;;;;;;;5.32;1.40;;;;;;;12.47;22.94;101554.44;5038783;28;20121;-75
2022/03/27 11:34:17;;;;;;;4.15;1.67;;;;;;;12.71;21.81;101557.41;5084453;28;20107;-76
2022/03/27 11:37:04;;;;;;;2.95;1.20;;;;;;;12.21;22.28;101553.34;5015202;28;20057;-74
2022/03/27 11:39:58;;;;;;;3.05;1.38;;;;;;;12.04;22.38;101557.78;5000513;28;20054;-72
2022/03/27 11:42:29;;;;;;;2.40;1.33;;;;;;;11.85;22.38;101563.28;5011617;28;20045;-77
2022/03/27 11:45:16;;;;;;;2.40;0.98;;;;;;;11.78;22.71;101558.44;5020669;28;20037;-74
2022/03/27 11:47:45;;;;;;;1.83;0.80;;;;;;;11.79;23.06;101552.19;5013974;28;20053;-75
2022/03/27 11:50:21;;;;;;;3.58;1.23;;;;;;;11.84;22.91;101556.25;5011241;28;20046;-77
2022/03/27 11:52:49;;;;;;;2.38;0.82;;;;;;;12.11;23.08;101554.81;5011612;28;20562;-71
2022/03/27 11:55:21;;;;;;;2.38;1.20;;;;;;;12.25;23.10;101533.66;5014660;28;20137;-72
2022/03/27 11:57:52;;;;;;;6.65;1.85;;;;;;;12.23;22.76;101525.81;5010661;28;20117;-74